sensor_id;sensor_type;location;lat;lon;timestamp;temperature;humidity
4530;DHT22;2277;51.626;7.516;2023-04-01T00:02:24;11.20;99.90
4530;DHT22;2277;51.626;7.516;2023-04-01T00:04:50;11.20;99.90
4530;DHT22;2277;51.626;7.516;2023-04-01T00:07:15;11.20;99.90
4530;DHT22;2277;51.626;7.516;2023-04-01T00:09:41;11.10;99.90
4530;DHT22;2277;51.626;7.516;2023-04-01T00:12:07;11.00;99.90
4530;DHT22;2277;51.626;7.516;2023-04-01T00:14:32;11.00;99.90
4530;DHT22;2277;51.626;7.516;2023-04-01T00:16:58;11.10;99.90
4530;DHT22;2277;51.626;7.516;2023-04-01T00:19:23;11.00;99.90
4530;DHT22;2277;51.626;7.516;2023-04-01T00:21:49;11.00;99.90
4530;DHT22;2277;51.626;7.516;2023-04-01T00:24:14;10.90;99.90
4530;DHT22;2277;51.626;7.516;2023-04-01T00:26:40;10.90;99.90
4530;DHT22;2277;51.626;7.516;2023-04-01T00:29:07;11.00;99.90
4530;DHT22;2277;51.626;7.516;2023-04-01T00:31:33;10.90;99.90
4530;DHT22;2277;51.626;7.516;2023-04-01T00:33:59;10.80;99.90
4530;DHT22;2277;51.626;7.516;2023-04-01T00:36:24;10.90;99.90
4530;DHT22;2277;51.626;7.516;2023-04-01T00:38:50;10.90;99.90
4530;DHT22;2277;51.626;7.516;2023-04-01T00:41:18;10.80;99.90
4530;DHT22;2277;51.626;7.516;2023-04-01T00:43:47;10.80;99.90
4530;DHT22;2277;51.626;7.516;2023-04-01T00:46:13;10.80;99.90
4530;DHT22;2277;51.626;7.516;2023-04-01T00:48:43;10.90;99.90
4530;DHT22;2277;51.626;7.516;2023-04-01T00:51:13;10.80;99.90
4530;DHT22;2277;51.626;7.516;2023-04-01T00:53:41;10.90;99.90
4530;DHT22;2277;51.626;7.516;2023-04-01T00:56:24;10.90;99.90
4530;DHT22;2277;51.626;7.516;2023-04-01T00:59:00;10.90;99.90
4530;DHT22;2277;51.626;7.516;2023-04-01T01:01:28;10.70;99.90
4530;DHT22;2277;51.626;7.516;2023-04-01T01:03:55;10.80;99.90
4530;DHT22;2277;51.626;7.516;2023-04-01T01:06:43;10.90;99.90
4530;DHT22;2277;51.626;7.516;2023-04-01T01:09:41;10.70;99.90
4530;DHT22;2277;51.626;7.516;2023-04-01T01:12:15;10.80;99.90
4530;DHT22;2277;51.626;7.516;2023-04-01T01:14:48;10.70;99.90
4530;DHT22;2277;51.626;7.516;2023-04-01T01:20:22;10.80;99.90
4530;DHT22;2277;51.626;7.516;2023-04-01T01:33:53;10.70;99.90
4530;DHT22;2277;51.626;7.516;2023-04-01T01:36:23;10.70;99.90
4530;DHT22;2277;51.626;7.516;2023-04-01T01:38:51;10.60;99.90
4530;DHT22;2277;51.626;7.516;2023-04-01T01:41:17;10.60;99.90
4530;DHT22;2277;51.626;7.516;2023-04-01T01:43:46;10.50;99.90
4530;DHT22;2277;51.626;7.516;2023-04-01T01:46:19;10.60;99.90
4530;DHT22;2277;51.626;7.516;2023-04-01T01:48:47;10.60;99.90
4530;DHT22;2277;51.626;7.516;2023-04-01T01:51:14;10.60;99.90
4530;DHT22;2277;51.626;7.516;2023-04-01T01:53:40;10.60;99.90
4530;DHT22;2277;51.626;7.516;2023-04-01T01:56:06;10.60;99.90
4530;DHT22;2277;51.626;7.516;2023-04-01T01:58:42;10.60;99.90
4530;DHT22;2277;51.626;7.516;2023-04-01T02:01:13;10.60;99.90
4530;DHT22;2277;51.626;7.516;2023-04-01T02:03:42;10.60;99.90
4530;DHT22;2277;51.626;7.516;2023-04-01T02:06:11;10.60;99.90
4530;DHT22;2277;51.626;7.516;2023-04-01T02:09:01;10.60;99.90
4530;DHT22;2277;51.626;7.516;2023-04-01T02:11:45;10.60;99.90
4530;DHT22;2277;51.626;7.516;2023-04-01T02:14:28;10.60;99.90
4530;DHT22;2277;51.626;7.516;2023-04-01T02:17:04;10.70;99.90
4530;DHT22;2277;51.626;7.516;2023-04-01T02:19:59;10.50;99.90
4530;DHT22;2277;51.626;7.516;2023-04-01T02:22:27;10.60;99.90
4530;DHT22;2277;51.626;7.516;2023-04-01T02:25:06;10.70;99.90
4530;DHT22;2277;51.626;7.516;2023-04-01T02:27:33;10.60;99.90
4530;DHT22;2277;51.626;7.516;2023-04-01T02:29:58;10.60;99.90
4530;DHT22;2277;51.626;7.516;2023-04-01T02:32:25;10.60;99.90
4530;DHT22;2277;51.626;7.516;2023-04-01T02:34:53;10.60;99.90
4530;DHT22;2277;51.626;7.516;2023-04-01T02:37:19;10.60;99.90
4530;DHT22;2277;51.626;7.516;2023-04-01T02:39:45;10.60;99.90
4530;DHT22;2277;51.626;7.516;2023-04-01T02:42:10;10.60;99.90
4530;DHT22;2277;51.626;7.516;2023-04-01T02:44:36;10.50;99.90
4530;DHT22;2277;51.626;7.516;2023-04-01T02:47:02;10.50;99.90
4530;DHT22;2277;51.626;7.516;2023-04-01T02:49:28;10.60;99.90
4530;DHT22;2277;51.626;7.516;2023-04-01T02:51:54;10.50;99.90
4530;DHT22;2277;51.626;7.516;2023-04-01T02:54:19;10.50;99.90
4530;DHT22;2277;51.626;7.516;2023-04-01T02:56:45;10.40;99.90
4530;DHT22;2277;51.626;7.516;2023-04-01T02:59:11;10.50;99.90
4530;DHT22;2277;51.626;7.516;2023-04-01T03:01:37;10.50;99.90
4530;DHT22;2277;51.626;7.516;2023-04-01T03:04:03;10.50;99.90
4530;DHT22;2277;51.626;7.516;2023-04-01T03:06:28;10.50;99.90
4530;DHT22;2277;51.626;7.516;2023-04-01T03:08:54;10.40;99.90
4530;DHT22;2277;51.626;7.516;2023-04-01T03:11:20;10.40;99.90
4530;DHT22;2277;51.626;7.516;2023-04-01T03:13:46;10.50;99.90
4530;DHT22;2277;51.626;7.516;2023-04-01T03:16:12;10.40;99.90
4530;DHT22;2277;51.626;7.516;2023-04-01T03:18:38;10.50;99.90
4530;DHT22;2277;51.626;7.516;2023-04-01T03:21:33;10.50;99.90
4530;DHT22;2277;51.626;7.516;2023-04-01T03:23:58;10.50;99.90
4530;DHT22;2277;51.626;7.516;2023-04-01T03:26:24;10.60;99.90
4530;DHT22;2277;51.626;7.516;2023-04-01T03:28:52;10.60;99.90
4530;DHT22;2277;51.626;7.516;2023-04-01T03:31:17;10.60;99.90
4530;DHT22;2277;51.626;7.516;2023-04-01T03:33:43;10.50;99.90
4530;DHT22;2277;51.626;7.516;2023-04-01T03:36:08;10.50;99.90
4530;DHT22;2277;51.626;7.516;2023-04-01T03:38:36;10.50;99.90
4530;DHT22;2277;51.626;7.516;2023-04-01T03:41:03;10.50;99.90
4530;DHT22;2277;51.626;7.516;2023-04-01T03:43:29;10.40;99.90
4530;DHT22;2277;51.626;7.516;2023-04-01T03:45:54;10.50;99.90
4530;DHT22;2277;51.626;7.516;2023-04-01T03:48:22;10.40;99.90
4530;DHT22;2277;51.626;7.516;2023-04-01T03:50:47;10.30;99.90
4530;DHT22;2277;51.626;7.516;2023-04-01T03:53:13;10.40;99.90
4530;DHT22;2277;51.626;7.516;2023-04-01T03:55:39;10.40;99.90
4530;DHT22;2277;51.626;7.516;2023-04-01T03:58:06;10.40;99.90
4530;DHT22;2277;51.626;7.516;2023-04-01T04:00:32;10.40;99.90
4530;DHT22;2277;51.626;7.516;2023-04-01T04:02:57;10.40;99.90
4530;DHT22;2277;51.626;7.516;2023-04-01T04:05:24;10.40;99.90
4530;DHT22;2277;51.626;7.516;2023-04-01T04:07:51;10.30;99.90
4530;DHT22;2277;51.626;7.516;2023-04-01T04:10:16;10.40;99.90
4530;DHT22;2277;51.626;7.516;2023-04-01T04:12:42;10.50;99.90
4530;DHT22;2277;51.626;7.516;2023-04-01T04:15:08;10.50;99.90
4530;DHT22;2277;51.626;7.516;2023-04-01T04:17:34;10.50;99.90
4530;DHT22;2277;51.626;7.516;2023-04-01T04:20:00;10.50;99.90
4530;DHT22;2277;51.626;7.516;2023-04-01T04:22:26;10.50;99.90
4530;DHT22;2277;51.626;7.516;2023-04-01T04:24:51;10.50;99.90
4530;DHT22;2277;51.626;7.516;2023-04-01T04:27:17;10.40;99.90
4530;DHT22;2277;51.626;7.516;2023-04-01T04:29:43;10.40;99.90
4530;DHT22;2277;51.626;7.516;2023-04-01T04:32:08;10.40;99.90
4530;DHT22;2277;51.626;7.516;2023-04-01T04:34:34;10.40;99.90
4530;DHT22;2277;51.626;7.516;2023-04-01T04:37:00;10.40;99.90
4530;DHT22;2277;51.626;7.516;2023-04-01T04:39:25;10.40;99.90
4530;DHT22;2277;51.626;7.516;2023-04-01T04:41:51;10.40;99.90
4530;DHT22;2277;51.626;7.516;2023-04-01T04:44:16;10.50;99.90
4530;DHT22;2277;51.626;7.516;2023-04-01T04:46:42;10.50;99.90
4530;DHT22;2277;51.626;7.516;2023-04-01T04:49:07;10.40;99.90
4530;DHT22;2277;51.626;7.516;2023-04-01T04:51:33;10.40;99.90
4530;DHT22;2277;51.626;7.516;2023-04-01T04:54:02;10.40;99.90
4530;DHT22;2277;51.626;7.516;2023-04-01T04:56:28;10.40;99.90
4530;DHT22;2277;51.626;7.516;2023-04-01T04:58:53;10.30;99.90
4530;DHT22;2277;51.626;7.516;2023-04-01T05:01:19;10.30;99.90
4530;DHT22;2277;51.626;7.516;2023-04-01T05:03:45;10.30;99.90
4530;DHT22;2277;51.626;7.516;2023-04-01T05:06:13;10.30;99.90
4530;DHT22;2277;51.626;7.516;2023-04-01T05:08:39;10.40;99.90
4530;DHT22;2277;51.626;7.516;2023-04-01T05:11:07;10.40;99.90
4530;DHT22;2277;51.626;7.516;2023-04-01T05:13:35;10.40;99.90
4530;DHT22;2277;51.626;7.516;2023-04-01T05:16:01;10.40;99.90
4530;DHT22;2277;51.626;7.516;2023-04-01T05:18:27;10.30;99.90
4530;DHT22;2277;51.626;7.516;2023-04-01T05:20:53;10.40;99.90
4530;DHT22;2277;51.626;7.516;2023-04-01T05:23:21;10.40;99.90
4530;DHT22;2277;51.626;7.516;2023-04-01T05:25:48;10.40;99.90
4530;DHT22;2277;51.626;7.516;2023-04-01T05:28:14;10.50;99.90
4530;DHT22;2277;51.626;7.516;2023-04-01T05:30:43;10.50;99.90
4530;DHT22;2277;51.626;7.516;2023-04-01T05:33:10;10.50;99.90
4530;DHT22;2277;51.626;7.516;2023-04-01T05:35:36;10.50;99.90
4530;DHT22;2277;51.626;7.516;2023-04-01T05:38:02;10.50;99.90
4530;DHT22;2277;51.626;7.516;2023-04-01T05:40:28;10.50;99.90
4530;DHT22;2277;51.626;7.516;2023-04-01T05:42:54;10.50;99.90
4530;DHT22;2277;51.626;7.516;2023-04-01T05:45:20;10.60;99.90
4530;DHT22;2277;51.626;7.516;2023-04-01T05:47:45;10.50;99.90
4530;DHT22;2277;51.626;7.516;2023-04-01T05:50:11;10.60;99.90
4530;DHT22;2277;51.626;7.516;2023-04-01T05:52:37;10.60;99.90
4530;DHT22;2277;51.626;7.516;2023-04-01T05:55:03;10.60;99.90
4530;DHT22;2277;51.626;7.516;2023-04-01T05:57:29;10.60;99.90
4530;DHT22;2277;51.626;7.516;2023-04-01T05:59:55;10.60;99.90
4530;DHT22;2277;51.626;7.516;2023-04-01T06:02:21;10.70;99.90
4530;DHT22;2277;51.626;7.516;2023-04-01T06:04:47;10.70;99.90
4530;DHT22;2277;51.626;7.516;2023-04-01T06:07:14;10.70;99.90
4530;DHT22;2277;51.626;7.516;2023-04-01T06:09:40;10.70;99.90
4530;DHT22;2277;51.626;7.516;2023-04-01T06:12:28;10.60;99.90
4530;DHT22;2277;51.626;7.516;2023-04-01T06:20:45;10.60;99.90
4530;DHT22;2277;51.626;7.516;2023-04-01T06:34:17;10.60;99.90
4530;DHT22;2277;51.626;7.516;2023-04-01T06:56:10;10.60;99.90
4530;DHT22;2277;51.626;7.516;2023-04-01T06:58:48;10.80;99.90
4530;DHT22;2277;51.626;7.516;2023-04-01T07:01:20;10.80;99.90
4530;DHT22;2277;51.626;7.516;2023-04-01T07:03:55;10.80;99.90
4530;DHT22;2277;51.626;7.516;2023-04-01T07:07:10;10.90;99.90
4530;DHT22;2277;51.626;7.516;2023-04-01T07:09:43;10.90;99.90
4530;DHT22;2277;51.626;7.516;2023-04-01T07:12:18;10.90;99.90
4530;DHT22;2277;51.626;7.516;2023-04-01T07:14:48;10.90;99.90
4530;DHT22;2277;51.626;7.516;2023-04-01T07:17:23;10.90;99.90
4530;DHT22;2277;51.626;7.516;2023-04-01T07:22:39;11.00;99.90
4530;DHT22;2277;51.626;7.516;2023-04-01T07:25:15;10.90;99.90
4530;DHT22;2277;51.626;7.516;2023-04-01T07:27:43;10.90;99.90
4530;DHT22;2277;51.626;7.516;2023-04-01T07:30:17;11.00;99.90
4530;DHT22;2277;51.626;7.516;2023-04-01T07:32:59;10.90;99.90
4530;DHT22;2277;51.626;7.516;2023-04-01T07:35:40;10.90;99.90
4530;DHT22;2277;51.626;7.516;2023-04-01T07:41:28;10.90;99.90
4530;DHT22;2277;51.626;7.516;2023-04-01T07:44:07;11.00;99.90
4530;DHT22;2277;51.626;7.516;2023-04-01T07:47:02;10.90;99.90
4530;DHT22;2277;51.626;7.516;2023-04-01T07:49:45;10.90;99.90
4530;DHT22;2277;51.626;7.516;2023-04-01T07:55:42;11.00;99.90
4530;DHT22;2277;51.626;7.516;2023-04-01T08:06:45;10.80;99.90
4530;DHT22;2277;51.626;7.516;2023-04-01T08:09:33;10.80;99.90
4530;DHT22;2277;51.626;7.516;2023-04-01T08:12:27;10.90;99.90
4530;DHT22;2277;51.626;7.516;2023-04-01T08:17:36;11.00;99.90
4530;DHT22;2277;51.626;7.516;2023-04-01T08:22:42;11.10;99.90
4530;DHT22;2277;51.626;7.516;2023-04-01T08:25:21;11.10;99.90
4530;DHT22;2277;51.626;7.516;2023-04-01T08:28:14;11.00;99.90
4530;DHT22;2277;51.626;7.516;2023-04-01T08:30:51;11.00;99.90
4530;DHT22;2277;51.626;7.516;2023-04-01T08:33:35;11.10;99.90
4530;DHT22;2277;51.626;7.516;2023-04-01T08:36:22;11.10;99.90
4530;DHT22;2277;51.626;7.516;2023-04-01T08:38:57;11.10;99.90
4530;DHT22;2277;51.626;7.516;2023-04-01T08:52:37;11.20;99.90
4530;DHT22;2277;51.626;7.516;2023-04-01T09:00:55;11.30;99.90
4530;DHT22;2277;51.626;7.516;2023-04-01T09:06:42;11.40;99.90
4530;DHT22;2277;51.626;7.516;2023-04-01T09:12:26;11.40;99.90
4530;DHT22;2277;51.626;7.516;2023-04-01T09:15:23;11.30;99.90
4530;DHT22;2277;51.626;7.516;2023-04-01T09:24:28;11.30;99.90
4530;DHT22;2277;51.626;7.516;2023-04-01T09:32:48;11.40;99.90
4530;DHT22;2277;51.626;7.516;2023-04-01T09:41:01;11.40;99.90
4530;DHT22;2277;51.626;7.516;2023-04-01T09:46:58;11.30;99.90
4530;DHT22;2277;51.626;7.516;2023-04-01T09:51:55;11.40;99.90
4530;DHT22;2277;51.626;7.516;2023-04-01T10:06:03;11.30;99.90
4530;DHT22;2277;51.626;7.516;2023-04-01T10:14:33;11.30;99.90
4530;DHT22;2277;51.626;7.516;2023-04-01T10:20:12;11.40;99.90
4530;DHT22;2277;51.626;7.516;2023-04-01T10:23:02;11.30;99.90
4530;DHT22;2277;51.626;7.516;2023-04-01T10:25:57;11.30;99.90
4530;DHT22;2277;51.626;7.516;2023-04-01T10:28:31;11.30;99.90
4530;DHT22;2277;51.626;7.516;2023-04-01T10:37:37;11.40;99.90
4530;DHT22;2277;51.626;7.516;2023-04-01T10:40:29;11.40;99.90
4530;DHT22;2277;51.626;7.516;2023-04-01T10:54:40;11.60;99.90
4530;DHT22;2277;51.626;7.516;2023-04-01T10:56:55;11.60;99.90
4530;DHT22;2277;51.626;7.516;2023-04-01T11:28:02;11.80;99.90
4530;DHT22;2277;51.626;7.516;2023-04-01T11:33:57;11.80;99.90
4530;DHT22;2277;51.626;7.516;2023-04-01T11:37:27;11.80;99.90
4530;DHT22;2277;51.626;7.516;2023-04-01T11:42:17;11.90;99.90
4530;DHT22;2277;51.626;7.516;2023-04-01T11:47:55;11.90;99.90
4530;DHT22;2277;51.626;7.516;2023-04-01T11:56:19;12.00;99.90
4530;DHT22;2277;51.626;7.516;2023-04-01T12:04:54;12.20;99.90
4530;DHT22;2277;51.626;7.516;2023-04-01T12:16:12;12.30;99.90
4530;DHT22;2277;51.626;7.516;2023-04-01T12:19:09;12.30;99.90
4530;DHT22;2277;51.626;7.516;2023-04-01T12:24:42;12.40;99.90
4530;DHT22;2277;51.626;7.516;2023-04-01T12:30:02;12.40;99.90
4530;DHT22;2277;51.626;7.516;2023-04-01T12:35:34;12.50;99.90
4530;DHT22;2277;51.626;7.516;2023-04-01T12:46:29;12.20;99.90
4530;DHT22;2277;51.626;7.516;2023-04-01T13:02:33;12.00;99.90
4530;DHT22;2277;51.626;7.516;2023-04-01T13:08:04;12.00;99.90
4530;DHT22;2277;51.626;7.516;2023-04-01T13:16:29;12.10;99.90
4530;DHT22;2277;51.626;7.516;2023-04-01T13:19:09;12.20;99.90
4530;DHT22;2277;51.626;7.516;2023-04-01T13:33:25;12.40;99.90
4530;DHT22;2277;51.626;7.516;2023-04-01T13:38:41;12.40;99.90
4530;DHT22;2277;51.626;7.516;2023-04-01T13:52:18;12.40;99.90
4530;DHT22;2277;51.626;7.516;2023-04-01T13:54:52;12.40;99.90
4530;DHT22;2277;51.626;7.516;2023-04-01T14:03:15;12.50;99.90
4530;DHT22;2277;51.626;7.516;2023-04-01T14:06:04;12.40;99.90
4530;DHT22;2277;51.626;7.516;2023-04-01T14:09:01;12.50;99.90
4530;DHT22;2277;51.626;7.516;2023-04-01T14:17:17;12.40;99.90
4530;DHT22;2277;51.626;7.516;2023-04-01T14:19:56;12.40;99.90
4530;DHT22;2277;51.626;7.516;2023-04-01T14:35:50;12.40;99.90
4530;DHT22;2277;51.626;7.516;2023-04-01T14:38:28;12.40;99.90
4530;DHT22;2277;51.626;7.516;2023-04-01T14:49:21;12.50;99.90
4530;DHT22;2277;51.626;7.516;2023-04-01T14:51:48;12.50;99.90
4530;DHT22;2277;51.626;7.516;2023-04-01T14:54:21;12.50;99.90
4530;DHT22;2277;51.626;7.516;2023-04-01T14:57:10;12.50;99.90
4530;DHT22;2277;51.626;7.516;2023-04-01T15:05:10;12.50;99.90
4530;DHT22;2277;51.626;7.516;2023-04-01T15:13:41;12.40;99.90
4530;DHT22;2277;51.626;7.516;2023-04-01T15:16:39;12.40;99.90
4530;DHT22;2277;51.626;7.516;2023-04-01T15:25:16;12.40;99.90
4530;DHT22;2277;51.626;7.516;2023-04-01T15:54:06;12.30;99.90
4530;DHT22;2277;51.626;7.516;2023-04-01T16:02:31;12.40;99.90
4530;DHT22;2277;51.626;7.516;2023-04-01T16:04:59;12.40;99.90
4530;DHT22;2277;51.626;7.516;2023-04-01T16:21:49;12.40;99.90
4530;DHT22;2277;51.626;7.516;2023-04-01T16:27:58;12.40;99.90
4530;DHT22;2277;51.626;7.516;2023-04-01T16:30:40;12.40;99.90
4530;DHT22;2277;51.626;7.516;2023-04-01T16:38:59;12.50;99.90
4530;DHT22;2277;51.626;7.516;2023-04-01T16:41:34;12.40;99.90
4530;DHT22;2277;51.626;7.516;2023-04-01T16:46:47;12.40;99.90
4530;DHT22;2277;51.626;7.516;2023-04-01T16:52:16;12.40;99.90
4530;DHT22;2277;51.626;7.516;2023-04-01T16:54:55;12.40;99.90
4530;DHT22;2277;51.626;7.516;2023-04-01T16:57:30;12.40;99.90
4530;DHT22;2277;51.626;7.516;2023-04-01T17:00:26;12.40;99.90
4530;DHT22;2277;51.626;7.516;2023-04-01T17:05:42;12.40;99.90
4530;DHT22;2277;51.626;7.516;2023-04-01T17:08:37;12.50;99.90
4530;DHT22;2277;51.626;7.516;2023-04-01T17:11:26;12.50;99.90
4530;DHT22;2277;51.626;7.516;2023-04-01T17:14:30;12.50;99.90
4530;DHT22;2277;51.626;7.516;2023-04-01T17:17:01;12.50;99.90
4530;DHT22;2277;51.626;7.516;2023-04-01T17:19:41;12.50;99.90
4530;DHT22;2277;51.626;7.516;2023-04-01T17:35:58;12.40;99.90
4530;DHT22;2277;51.626;7.516;2023-04-01T17:41:12;12.50;99.90
4530;DHT22;2277;51.626;7.516;2023-04-01T17:44:22;12.40;99.90
4530;DHT22;2277;51.626;7.516;2023-04-01T17:52:47;12.40;99.90
4530;DHT22;2277;51.626;7.516;2023-04-01T17:55:40;12.40;99.90
4530;DHT22;2277;51.626;7.516;2023-04-01T17:58:18;12.40;99.90
4530;DHT22;2277;51.626;7.516;2023-04-01T18:11:39;12.40;99.90
4530;DHT22;2277;51.626;7.516;2023-04-01T18:23:02;12.40;99.90
4530;DHT22;2277;51.626;7.516;2023-04-01T18:28:41;12.40;99.90
4530;DHT22;2277;51.626;7.516;2023-04-01T18:31:15;12.40;99.90
4530;DHT22;2277;51.626;7.516;2023-04-01T18:36:49;12.40;99.90
4530;DHT22;2277;51.626;7.516;2023-04-01T18:39:33;12.40;99.90
4530;DHT22;2277;51.626;7.516;2023-04-01T18:45:20;12.50;99.90
4530;DHT22;2277;51.626;7.516;2023-04-01T18:47:54;12.50;99.90
4530;DHT22;2277;51.626;7.516;2023-04-01T18:50:43;12.50;99.90
4530;DHT22;2277;51.626;7.516;2023-04-01T18:53:58;12.50;99.90
4530;DHT22;2277;51.626;7.516;2023-04-01T18:56:35;12.50;99.90
4530;DHT22;2277;51.626;7.516;2023-04-01T19:04:52;12.40;99.90
4530;DHT22;2277;51.626;7.516;2023-04-01T19:21:16;11.90;99.90
4530;DHT22;2277;51.626;7.516;2023-04-01T19:26:35;11.80;99.90
4530;DHT22;2277;51.626;7.516;2023-04-01T19:32:51;11.80;99.90
4530;DHT22;2277;51.626;7.516;2023-04-01T19:37:40;11.60;99.90
4530;DHT22;2277;51.626;7.516;2023-04-01T19:50:55;11.60;99.90
4530;DHT22;2277;51.626;7.516;2023-04-01T19:53:33;11.50;99.90
4530;DHT22;2277;51.626;7.516;2023-04-01T19:56:22;11.50;99.90
4530;DHT22;2277;51.626;7.516;2023-04-01T20:01:44;11.50;99.90
4530;DHT22;2277;51.626;7.516;2023-04-01T20:04:22;11.40;99.90
4530;DHT22;2277;51.626;7.516;2023-04-01T20:07:13;11.40;99.90
4530;DHT22;2277;51.626;7.516;2023-04-01T20:09:47;11.40;99.90
4530;DHT22;2277;51.626;7.516;2023-04-01T20:15:26;11.30;99.90
4530;DHT22;2277;51.626;7.516;2023-04-01T20:17:54;11.30;99.90
4530;DHT22;2277;51.626;7.516;2023-04-01T20:20:25;11.30;99.90
4530;DHT22;2277;51.626;7.516;2023-04-01T20:25:49;11.20;99.90
4530;DHT22;2277;51.626;7.516;2023-04-01T20:28:28;11.10;99.90
4530;DHT22;2277;51.626;7.516;2023-04-01T20:36:50;11.00;99.90
4530;DHT22;2277;51.626;7.516;2023-04-01T20:51:14;10.70;99.90
4530;DHT22;2277;51.626;7.516;2023-04-01T20:59:36;10.60;99.90
4530;DHT22;2277;51.626;7.516;2023-04-01T21:21:45;10.20;99.90
4530;DHT22;2277;51.626;7.516;2023-04-01T21:40:23;9.90;99.90
4530;DHT22;2277;51.626;7.516;2023-04-01T22:05:43;9.60;99.90
4530;DHT22;2277;51.626;7.516;2023-04-01T22:16:58;9.60;99.90
4530;DHT22;2277;51.626;7.516;2023-04-01T22:22:23;9.50;99.90
4530;DHT22;2277;51.626;7.516;2023-04-01T22:30:40;9.50;99.90
4530;DHT22;2277;51.626;7.516;2023-04-01T22:34:11;9.40;99.90
4530;DHT22;2277;51.626;7.516;2023-04-01T22:42:19;9.30;99.90
4530;DHT22;2277;51.626;7.516;2023-04-01T22:45:02;9.30;99.90
4530;DHT22;2277;51.626;7.516;2023-04-01T22:47:46;9.30;99.90
4530;DHT22;2277;51.626;7.516;2023-04-01T22:52:48;9.30;99.90
4530;DHT22;2277;51.626;7.516;2023-04-01T22:55:23;9.30;99.90
4530;DHT22;2277;51.626;7.516;2023-04-01T22:58:04;9.20;99.90
4530;DHT22;2277;51.626;7.516;2023-04-01T23:00:35;9.20;99.90
4530;DHT22;2277;51.626;7.516;2023-04-01T23:03:21;9.10;99.90
4530;DHT22;2277;51.626;7.516;2023-04-01T23:05:54;9.20;99.90
4530;DHT22;2277;51.626;7.516;2023-04-01T23:11:17;9.10;99.90
4530;DHT22;2277;51.626;7.516;2023-04-01T23:14:01;9.10;99.90
4530;DHT22;2277;51.626;7.516;2023-04-01T23:16:35;9.00;99.90
4530;DHT22;2277;51.626;7.516;2023-04-01T23:21:51;8.90;99.90
4530;DHT22;2277;51.626;7.516;2023-04-01T23:24:25;8.90;99.90
4530;DHT22;2277;51.626;7.516;2023-04-01T23:27:07;8.90;99.90
4530;DHT22;2277;51.626;7.516;2023-04-01T23:29:37;8.90;99.90
4530;DHT22;2277;51.626;7.516;2023-04-01T23:32:18;8.90;99.90
4530;DHT22;2277;51.626;7.516;2023-04-01T23:34:49;8.90;99.90
4530;DHT22;2277;51.626;7.516;2023-04-01T23:37:17;8.90;99.90
4530;DHT22;2277;51.626;7.516;2023-04-01T23:39:55;8.90;99.90
4530;DHT22;2277;51.626;7.516;2023-04-01T23:42:32;8.90;99.90
4530;DHT22;2277;51.626;7.516;2023-04-01T23:45:05;8.90;99.90
4530;DHT22;2277;51.626;7.516;2023-04-01T23:47:39;8.90;99.90
4530;DHT22;2277;51.626;7.516;2023-04-01T23:50:14;8.90;99.90
4530;DHT22;2277;51.626;7.516;2023-04-01T23:53:00;8.90;99.90
4530;DHT22;2277;51.626;7.516;2023-04-01T23:55:31;8.70;99.90
